Time;durP1;ratioP1;P1;durP2;ratioP2;P2;SDS_P1;SDS_P2;PMS_P1;PMS_P2;Temp;Humidity;BMP_temperature;BMP_pressure;BME280_temperature;BME280_humidity;BME280_pressure;Samples;Min_cycle;Max_cycle;Signal;HPM_P1;HPM_P2
2023/01/21 00:02:11;;;;;;;14.43;7.97;;;-1.30;99.90;;;;;;5063640;28;20519;-73
2023/01/21 00:04:37;;;;;;;17.10;8.70;;;-1.40;99.90;;;;;;5052075;28;20171;-73
2023/01/21 00:07:04;;;;;;;13.47;8.50;;;-1.40;99.90;;;;;;5052345;28;20914;-73
2023/01/21 00:09:29;;;;;;;16.13;7.90;;;-1.40;99.90;;;;;;5052155;28;20281;-74
2023/01/21 00:11:55;;;;;;;11.67;7.53;;;-1.40;99.90;;;;;;5062180;28;20451;-74
2023/01/21 00:14:20;;;;;;;12.83;8.90;;;-1.40;99.90;;;;;;5071677;28;20186;-73
2023/01/21 00:16:46;;;;;;;11.73;7.47;;;-1.40;99.90;;;;;;5072129;28;20237;-72
2023/01/21 00:19:12;;;;;;;13.27;8.60;;;-1.40;99.90;;;;;;5071941;28;20229;-74
2023/01/21 00:21:37;;;;;;;16.10;9.07;;;-1.40;99.90;;;;;;5070455;28;20663;-74
2023/01/21 00:24:03;;;;;;;10.17;8.10;;;-1.40;99.90;;;;;;5070655;28;20177;-73
2023/01/21 00:26:28;;;;;;;13.43;10.10;;;-1.50;99.90;;;;;;5071871;28;20197;-73
2023/01/21 00:28:54;;;;;;;13.60;8.57;;;-1.50;99.90;;;;;;5071871;28;20249;-73
2023/01/21 00:31:19;;;;;;;14.00;8.70;;;-1.50;99.90;;;;;;5072061;28;20170;-72
2023/01/21 00:33:47;;;;;;;15.57;11.10;;;-1.50;99.90;;;;;;5061965;28;20185;-73
2023/01/21 00:36:17;;;;;;;14.50;8.70;;;-1.60;99.90;;;;;;5051656;28;20209;-73
2023/01/21 00:38:43;;;;;;;25.17;10.03;;;-1.50;99.90;;;;;;5051719;28;20448;-72
2023/01/21 00:41:11;;;;;;;15.77;8.83;;;-1.50;99.90;;;;;;5051820;28;20416;-72
2023/01/21 00:43:38;;;;;;;22.93;11.63;;;-1.50;99.90;;;;;;5051621;28;20402;-73
2023/01/21 00:46:04;;;;;;;22.57;9.33;;;-1.60;99.90;;;;;;5065017;28;20845;-72
2023/01/21 00:48:30;;;;;;;13.27;8.00;;;-1.60;99.90;;;;;;5071569;28;20529;-72
2023/01/21 00:50:59;;;;;;;24.83;10.50;;;-1.60;99.90;;;;;;5071878;28;20889;-73
2023/01/21 00:53:29;;;;;;;15.47;9.97;;;-1.60;99.90;;;;;;5070686;28;20407;-72
2023/01/21 00:56:01;;;;;;;11.47;6.43;;;-1.70;99.90;;;;;;5071566;28;20405;-72
2023/01/21 00:58:27;;;;;;;12.80;7.37;;;-1.70;99.90;;;;;;5071713;28;20424;-71
2023/01/21 01:01:13;;;;;;;22.43;8.63;;;-1.70;99.90;;;;;;5071868;28;20452;-72
2023/01/21 01:03:39;;;;;;;12.00;8.03;;;-1.70;99.90;;;;;;5071799;28;20459;-71
2023/01/21 01:06:08;;;;;;;14.10;8.77;;;-1.80;99.90;;;;;;5070250;28;20419;-73
2023/01/21 01:08:34;;;;;;;13.20;9.20;;;-1.80;99.90;;;;;;5066918;28;20448;-73
2023/01/21 01:11:01;;;;;;;11.03;7.13;;;-1.80;99.90;;;;;;5051644;28;20403;-73
2023/01/21 01:13:27;;;;;;;10.07;7.43;;;-1.80;99.90;;;;;;5051385;28;20639;-72
2023/01/21 01:15:54;;;;;;;12.00;7.17;;;-1.80;99.90;;;;;;5051328;28;20397;-72
2023/01/21 01:18:21;;;;;;;16.67;8.30;;;-1.80;99.90;;;;;;5051219;28;20187;-72
2023/01/21 01:20:47;;;;;;;16.17;8.87;;;-1.80;99.90;;;;;;5054439;28;20496;-74
2023/01/21 01:23:13;;;;;;;15.03;8.93;;;-1.80;99.90;;;;;;5071460;28;20428;-74
2023/01/21 01:25:38;;;;;;;16.60;8.60;;;-1.80;99.90;;;;;;5071354;28;20506;-73
2023/01/21 01:28:04;;;;;;;15.63;8.77;;;-1.80;99.90;;;;;;5069937;28;20244;-72
2023/01/21 01:30:30;;;;;;;9.50;6.07;;;-1.80;99.90;;;;;;5071369;28;20169;-72
2023/01/21 01:32:56;;;;;;;14.80;8.50;;;-1.80;99.90;;;;;;5073072;28;20162;-72
2023/01/21 01:35:22;;;;;;;15.73;8.70;;;-1.80;99.90;;;;;;5075002;28;20405;-72
2023/01/21 01:37:47;;;;;;;11.30;6.27;;;-1.80;99.90;;;;;;5062349;28;20213;-72
2023/01/21 01:40:13;;;;;;;17.43;7.33;;;-1.80;99.90;;;;;;5055185;28;20405;-72
2023/01/21 01:42:39;;;;;;;21.93;8.97;;;-1.80;99.90;;;;;;5055065;28;20167;-73
2023/01/21 01:45:15;;;;;;;14.20;7.90;;;-1.80;99.90;;;;;;5054875;28;20408;-74
2023/01/21 01:47:46;;;;;;;13.63;8.10;;;-1.80;99.90;;;;;;5054932;28;20186;-72
2023/01/21 01:50:15;;;;;;;15.83;9.73;;;-1.80;99.90;;;;;;5054993;28;20405;-72
2023/01/21 01:52:42;;;;;;;19.90;8.07;;;-1.80;99.90;;;;;;5054939;28;20774;-73
2023/01/21 01:55:10;;;;;;;12.87;8.00;;;-1.80;99.90;;;;;;5053391;28;20794;-73
2023/01/21 01:57:40;;;;;;;13.30;7.80;;;-1.90;99.90;;;;;;5058744;28;20485;-72
2023/01/21 02:00:10;;;;;;;18.03;8.83;;;-1.90;99.90;;;;;;5074899;28;20405;-72
2023/01/21 02:02:37;;;;;;;14.77;8.77;;;-1.90;99.90;;;;;;5074723;28;20423;-73
2023/01/21 02:05:07;;;;;;;9.50;7.00;;;-2.00;99.90;;;;;;5074424;28;20409;-73
2023/01/21 02:07:38;;;;;;;15.40;9.93;;;-1.90;99.90;;;;;;5074419;28;20515;-73
2023/01/21 02:10:18;;;;;;;14.10;6.97;;;-2.00;99.90;;;;;;5065821;28;20847;-72
2023/01/21 02:12:44;;;;;;;16.20;7.07;;;-2.00;99.90;;;;;;5054569;28;20417;-72
2023/01/21 02:15:10;;;;;;;16.60;7.37;;;-2.00;99.90;;;;;;5054190;28;20420;-72
2023/01/21 02:18:08;;;;;;;15.83;7.47;;;-2.00;99.90;;;;;;5054429;28;20199;-72
2023/01/21 02:20:51;;;;;;;10.47;7.77;;;-2.00;99.90;;;;;;5054472;28;20442;-72
2023/01/21 02:23:37;;;;;;;12.13;7.80;;;-2.00;99.90;;;;;;5054271;28;20421;-73
2023/01/21 02:26:22;;;;;;;13.10;8.30;;;-2.00;99.90;;;;;;5054034;28;20405;-72
2023/01/21 02:29:30;;;;;;;13.70;7.73;;;-2.10;99.90;;;;;;5054093;28;20452;-72
2023/01/21 02:32:28;;;;;;;19.13;8.50;;;-2.10;99.90;;;;;;5040032;28;20424;-73
2023/01/21 02:35:10;;;;;;;14.90;7.63;;;-2.10;99.90;;;;;;5068260;28;20512;-73
2023/01/21 02:37:49;;;;;;;12.50;7.97;;;-2.10;99.90;;;;;;5072669;28;20464;-73
2023/01/21 02:40:36;;;;;;;14.17;8.80;;;-2.10;99.90;;;;;;5073921;28;20392;-73
2023/01/21 02:43:11;;;;;;;15.43;8.73;;;-2.10;99.90;;;;;;5061908;28;20501;-74
2023/01/21 02:45:48;;;;;;;12.03;8.90;;;-2.10;99.90;;;;;;5052575;28;20396;-73
2023/01/21 02:48:18;;;;;;;15.50;8.70;;;-2.10;99.90;;;;;;5053718;28;20456;-74
2023/01/21 02:50:48;;;;;;;18.63;9.27;;;-2.10;99.90;;;;;;5053869;28;20441;-72
2023/01/21 02:53:34;;;;;;;15.90;8.20;;;-2.10;99.90;;;;;;5067112;28;20420;-74
2023/01/21 02:56:14;;;;;;;14.60;8.77;;;-2.20;99.90;;;;;;5073387;28;20416;-74
2023/01/21 02:58:46;;;;;;;13.50;7.73;;;-2.20;99.90;;;;;;5073773;28;20507;-72
2023/01/21 03:01:34;;;;;;;11.00;8.13;;;-2.20;99.90;;;;;;5073669;28;20393;-73
2023/01/21 03:04:24;;;;;;;12.30;7.73;;;-2.20;99.90;;;;;;5067705;28;20410;-72
2023/01/21 03:07:20;;;;;;;10.97;7.70;;;-2.20;99.90;;;;;;5053530;28;20398;-72
2023/01/21 03:09:45;;;;;;;11.87;8.00;;;-2.20;99.90;;;;;;5061994;28;20458;-73
2023/01/21 03:12:35;;;;;;;14.03;7.43;;;-2.20;99.90;;;;;;5073362;28;20402;-72
2023/01/21 03:18:24;;;;;;;12.90;8.27;;;-2.20;99.90;;;;;;5073331;28;20953;-73
2023/01/21 03:20:55;;;;;;;18.40;8.43;;;-2.20;99.90;;;;;;5055757;28;20422;-72
2023/01/21 03:23:27;;;;;;;23.87;8.53;;;-2.20;99.90;;;;;;5052722;28;20770;-72
2023/01/21 03:25:54;;;;;;;17.23;7.40;;;-2.20;99.90;;;;;;5053212;28;20382;-74
2023/01/21 03:28:25;;;;;;;15.00;8.70;;;-2.20;99.90;;;;;;5052846;28;20527;-73
2023/01/21 03:30:58;;;;;;;11.80;7.77;;;-2.20;99.90;;;;;;5072844;28;20408;-74
2023/01/21 03:33:25;;;;;;;13.40;7.37;;;-2.20;99.90;;;;;;5072853;28;20476;-73
2023/01/21 03:35:54;;;;;;;12.20;6.93;;;-2.20;99.90;;;;;;5072278;28;20401;-74
2023/01/21 03:38:35;;;;;;;10.97;6.90;;;-2.20;99.90;;;;;;5070650;28;20512;-73
2023/01/21 03:41:30;;;;;;;9.77;7.07;;;-2.20;99.90;;;;;;5052588;28;20501;-73
2023/01/21 03:43:56;;;;;;;13.63;7.10;;;-2.20;99.90;;;;;;5052900;28;20401;-72
2023/01/21 03:46:48;;;;;;;18.80;9.13;;;-2.20;99.90;;;;;;5052727;28;20416;-73
2023/01/21 03:49:21;;;;;;;17.03;7.40;;;-2.20;99.90;;;;;;5052017;28;20215;-72
2023/01/21 03:51:54;;;;;;;17.33;9.13;;;-2.20;99.90;;;;;;5063804;28;20413;-74
2023/01/21 03:54:21;;;;;;;11.10;8.67;;;-2.30;99.90;;;;;;5071012;28;20470;-73
2023/01/21 03:56:46;;;;;;;16.00;9.50;;;-2.30;99.90;;;;;;5072273;28;20959;-73
2023/01/21 03:59:12;;;;;;;15.87;8.03;;;-2.20;99.90;;;;;;5054017;28;20429;-73
2023/01/21 04:01:39;;;;;;;11.13;8.07;;;-2.20;99.90;;;;;;5051199;28;20209;-74
2023/01/21 04:04:05;;;;;;;10.83;7.00;;;-2.20;99.90;;;;;;5052597;28;20525;-73
2023/01/21 04:06:32;;;;;;;13.73;7.67;;;-2.20;99.90;;;;;;5051353;28;20926;-73
2023/01/21 04:08:57;;;;;;;15.80;8.17;;;-2.20;99.90;;;;;;5068445;28;20969;-72
2023/01/21 04:11:23;;;;;;;13.37;8.13;;;-2.20;99.90;;;;;;5072316;28;20412;-72
2023/01/21 04:13:48;;;;;;;12.33;8.00;;;-2.20;99.90;;;;;;5072399;28;20162;-72
2023/01/21 04:16:14;;;;;;;12.33;7.73;;;-2.20;99.90;;;;;;5072236;28;20170;-74
2023/01/21 04:18:39;;;;;;;11.77;8.13;;;-2.20;99.90;;;;;;5072138;28;20193;-72
2023/01/21 04:21:05;;;;;;;16.20;8.40;;;-2.20;99.90;;;;;;5055486;28;20171;-72
2023/01/21 04:23:30;;;;;;;13.80;7.50;;;-2.20;99.90;;;;;;5052112;28;20175;-72
2023/01/21 04:25:56;;;;;;;15.47;8.43;;;-2.20;99.90;;;;;;5050630;28;20706;-72
2023/01/21 04:28:22;;;;;;;15.20;9.90;;;-2.30;99.90;;;;;;5051849;28;20706;-72
2023/01/21 04:30:47;;;;;;;16.20;7.50;;;-2.30;99.90;;;;;;5052024;28;20170;-73
2023/01/21 04:33:13;;;;;;;12.97;7.30;;;-2.30;99.90;;;;;;5070791;28;20174;-71
2023/01/21 04:35:39;;;;;;;19.37;9.43;;;-2.30;99.90;;;;;;5072009;28;20194;-73
2023/01/21 04:38:04;;;;;;;11.97;7.40;;;-2.40;99.90;;;;;;5071808;28;20237;-73
2023/01/21 04:40:30;;;;;;;24.13;7.90;;;-2.30;99.90;;;;;;5071948;28;20167;-72
2023/01/21 04:42:56;;;;;;;11.33;7.57;;;-2.30;99.90;;;;;;5072320;28;20404;-73
2023/01/21 04:45:21;;;;;;;18.20;10.50;;;-2.30;99.90;;;;;;5070022;28;20182;-74
2023/01/21 04:47:47;;;;;;;12.20;7.70;;;-2.30;99.90;;;;;;5071895;28;20201;-71
2023/01/21 04:50:13;;;;;;;16.00;8.50;;;-2.30;99.90;;;;;;5071712;28;20521;-73
2023/01/21 04:52:40;;;;;;;13.77;9.10;;;-2.30;99.90;;;;;;5087316;28;20170;-72
2023/01/21 04:55:06;;;;;;;14.30;9.67;;;-2.30;99.90;;;;;;5071674;28;20405;-72
2023/01/21 04:57:31;;;;;;;14.20;8.67;;;-2.30;99.90;;;;;;5053179;28;20446;-71
2023/01/21 04:59:57;;;;;;;20.63;10.00;;;-2.30;99.90;;;;;;5051648;28;20503;-72
2023/01/21 05:02:22;;;;;;;13.63;7.57;;;-2.30;99.90;;;;;;5051855;28;20641;-72
2023/01/21 05:04:48;;;;;;;23.40;8.10;;;-2.30;99.90;;;;;;5051431;28;20170;-72
2023/01/21 05:07:13;;;;;;;15.53;8.13;;;-2.40;99.90;;;;;;5052288;28;20186;-72
2023/01/21 05:09:40;;;;;;;16.93;8.80;;;-2.50;99.90;;;;;;5075209;28;20198;-73
2023/01/21 05:12:06;;;;;;;15.77;8.83;;;-2.50;99.90;;;;;;5075665;28;20162;-71
2023/01/21 05:14:32;;;;;;;15.80;9.20;;;-2.50;99.90;;;;;;5075361;28;20393;-73
2023/01/21 05:16:58;;;;;;;14.87;8.87;;;-2.50;99.90;;;;;;5075376;28;20400;-73
2023/01/21 05:19:23;;;;;;;10.70;8.13;;;-2.50;99.90;;;;;;5075533;28;20170;-72
2023/01/21 05:21:49;;;;;;;16.70;8.80;;;-2.60;99.90;;;;;;5074125;28;20202;-72
2023/01/21 05:24:14;;;;;;;17.40;8.13;;;-2.60;99.90;;;;;;5075292;28;20257;-73
2023/01/21 05:26:40;;;;;;;11.87;7.60;;;-2.60;99.90;;;;;;5075433;28;20185;-72
2023/01/21 05:29:05;;;;;;;17.83;8.93;;;-2.60;99.90;;;;;;5075098;28;20217;-71
2023/01/21 05:31:31;;;;;;;12.50;7.63;;;-2.60;99.90;;;;;;5075365;28;20215;-72
2023/01/21 05:33:57;;;;;;;25.47;10.20;;;-2.60;99.90;;;;;;5055617;28;20171;-72
2023/01/21 05:36:23;;;;;;;20.30;10.77;;;-2.60;99.90;;;;;;5054950;28;20171;-71
2023/01/21 05:38:48;;;;;;;22.47;8.70;;;-2.60;99.90;;;;;;5055009;28;20202;-72
2023/01/21 05:41:14;;;;;;;19.30;8.00;;;-2.60;99.90;;;;;;5055169;28;20326;-74
2023/01/21 05:43:39;;;;;;;15.07;7.90;;;-2.60;99.90;;;;;;5056178;28;20607;-71
2023/01/21 05:46:05;;;;;;;20.30;9.27;;;-2.60;99.90;;;;;;5075012;28;20173;-73
2023/01/21 05:48:30;;;;;;;15.50;8.73;;;-2.70;99.90;;;;;;5074858;28;20222;-71
2023/01/21 05:50:56;;;;;;;14.87;8.00;;;-2.70;99.90;;;;;;5074881;28;20166;-72
2023/01/21 05:53:23;;;;;;;19.50;9.50;;;-2.70;99.90;;;;;;5074964;28;20196;-72
2023/01/21 05:55:55;;;;;;;11.93;8.57;;;-2.70;99.90;;;;;;5069394;28;20775;-72
2023/01/21 05:58:22;;;;;;;18.10;9.50;;;-2.70;99.90;;;;;;5054718;28;20835;-73
2023/01/21 06:00:48;;;;;;;17.37;10.07;;;-2.70;99.90;;;;;;5054702;28;20759;-73
2023/01/21 06:03:16;;;;;;;22.60;10.13;;;-2.70;99.90;;;;;;5054806;28;20444;-72
2023/01/21 06:05:42;;;;;;;18.20;11.43;;;-2.70;99.90;;;;;;5054333;28;20393;-72
2023/01/21 06:08:08;;;;;;;20.23;10.20;;;-2.60;99.90;;;;;;5054569;28;20451;-72
2023/01/21 06:10:34;;;;;;;19.23;8.93;;;-2.70;99.90;;;;;;5054610;28;20409;-72
2023/01/21 06:13:00;;;;;;;15.50;9.30;;;-2.70;99.90;;;;;;5054571;28;20483;-73
2023/01/21 06:15:25;;;;;;;16.33;8.07;;;-2.70;99.90;;;;;;5054272;28;20628;-72
2023/01/21 06:17:52;;;;;;;17.20;8.87;;;-2.70;99.90;;;;;;5054471;28;20187;-72
2023/01/21 06:20:17;;;;;;;14.43;8.33;;;-2.70;99.90;;;;;;5061072;28;20167;-72
2023/01/21 06:22:43;;;;;;;11.83;8.60;;;-2.70;99.90;;;;;;5089805;28;20420;-72
2023/01/21 06:25:09;;;;;;;14.20;7.80;;;-2.70;99.90;;;;;;5072760;28;20223;-72
2023/01/21 06:27:37;;;;;;;17.93;9.40;;;-2.70;99.90;;;;;;5072731;28;20202;-72
2023/01/21 06:30:04;;;;;;;21.90;9.97;;;-2.70;99.90;;;;;;5074454;28;20443;-72
2023/01/21 06:32:30;;;;;;;20.40;10.43;;;-2.70;99.90;;;;;;5066672;28;20910;-72
2023/01/21 06:34:56;;;;;;;17.00;8.70;;;-2.70;99.90;;;;;;5053771;28;20427;-72
2023/01/21 06:37:21;;;;;;;18.80;11.37;;;-2.70;99.90;;;;;;5055047;28;20187;-72
2023/01/21 06:39:47;;;;;;;19.80;10.50;;;-2.70;99.90;;;;;;5069292;28;20240;-72
2023/01/21 06:42:12;;;;;;;34.10;13.73;;;-2.70;99.90;;;;;;5054050;28;20217;-72
2023/01/21 06:44:38;;;;;;;23.53;13.17;;;-2.80;99.90;;;;;;5068975;28;20202;-72
2023/01/21 06:47:03;;;;;;;28.50;14.20;;;-2.80;99.90;;;;;;5076609;28;20270;-72
2023/01/21 06:49:29;;;;;;;30.33;13.83;;;-2.80;99.90;;;;;;5088962;28;20344;-72
2023/01/21 06:51:55;;;;;;;25.37;14.10;;;-2.80;99.90;;;;;;5074185;28;20182;-72
2023/01/21 06:54:20;;;;;;;29.60;13.87;;;-2.80;99.90;;;;;;5073495;28;20208;-72
2023/01/21 06:56:46;;;;;;;25.73;14.10;;;-2.80;99.90;;;;;;5073772;28;20500;-72
2023/01/21 06:59:12;;;;;;;31.97;14.50;;;-2.80;99.90;;;;;;5067216;28;20187;-72
2023/01/21 07:01:37;;;;;;;28.20;14.70;;;-2.90;99.90;;;;;;5053606;28;20178;-72
2023/01/21 07:04:03;;;;;;;33.23;15.07;;;-2.90;99.90;;;;;;5069138;28;20221;-71
2023/01/21 07:06:28;;;;;;;24.00;12.40;;;-2.90;99.90;;;;;;5053515;28;20179;-71
2023/01/21 07:08:54;;;;;;;17.83;9.27;;;-2.90;99.90;;;;;;5053376;28;20203;-73
2023/01/21 07:11:19;;;;;;;23.30;10.93;;;-2.90;99.90;;;;;;5071765;28;20186;-73
2023/01/21 07:13:45;;;;;;;21.53;10.33;;;-2.90;99.90;;;;;;5073075;28;20253;-73
2023/01/21 07:16:10;;;;;;;23.47;12.30;;;-2.90;99.90;;;;;;5072734;28;20197;-73
2023/01/21 07:18:36;;;;;;;15.80;10.23;;;-2.90;99.90;;;;;;5073188;28;20220;-73
2023/01/21 07:21:01;;;;;;;17.93;10.10;;;-2.80;99.90;;;;;;5056461;28;20179;-73
2023/01/21 07:23:28;;;;;;;20.03;9.20;;;-2.90;99.90;;;;;;5053225;28;20250;-73
2023/01/21 07:25:54;;;;;;;16.20;8.90;;;-2.90;99.90;;;;;;5051652;28;20277;-73
2023/01/21 07:28:20;;;;;;;12.70;8.70;;;-2.80;99.90;;;;;;5052890;28;20552;-74
2023/01/21 07:30:45;;;;;;;25.67;12.27;;;-2.80;99.90;;;;;;5052577;28;20213;-73
2023/01/21 07:33:11;;;;;;;19.60;9.63;;;-2.80;99.90;;;;;;5071291;28;20186;-73
2023/01/21 07:35:36;;;;;;;16.77;9.30;;;-2.70;99.90;;;;;;5072771;28;20201;-73
2023/01/21 07:38:02;;;;;;;12.70;8.20;;;-2.80;99.90;;;;;;5072682;28;20199;-73
2023/01/21 07:40:28;;;;;;;26.87;10.10;;;-2.80;99.90;;;;;;5066444;28;20624;-73
2023/01/21 07:42:54;;;;;;;18.50;10.80;;;-2.80;99.90;;;;;;5062631;28;20260;-74
2023/01/21 07:45:21;;;;;;;19.70;9.30;;;-2.70;99.90;;;;;;5072612;28;20174;-74
2023/01/21 07:47:47;;;;;;;18.60;10.57;;;-2.60;99.90;;;;;;5072538;28;20424;-73
2023/01/21 07:50:13;;;;;;;15.77;9.50;;;-2.60;99.90;;;;;;5072690;28;21058;-74
2023/01/21 07:52:39;;;;;;;12.50;9.33;;;-2.50;99.90;;;;;;5065644;28;20428;-73
2023/01/21 07:55:05;;;;;;;18.10;10.33;;;-2.40;99.90;;;;;;5052207;28;20179;-74
2023/01/21 07:57:31;;;;;;;16.30;9.53;;;-2.30;99.90;;;;;;5052512;28;20188;-73
2023/01/21 07:59:56;;;;;;;19.23;10.30;;;-2.20;99.90;;;;;;5052592;28;20495;-73
2023/01/21 08:02:22;;;;;;;20.47;12.70;;;-2.20;99.90;;;;;;5052557;28;20178;-74
2023/01/21 08:04:47;;;;;;;15.80;9.13;;;-2.10;99.90;;;;;;5061501;28;20182;-73
2023/01/21 08:07:13;;;;;;;17.40;9.57;;;-2.00;99.90;;;;;;5072315;28;20265;-73
2023/01/21 08:09:39;;;;;;;13.57;9.67;;;-1.90;99.90;;;;;;5072228;28;20197;-74
2023/01/21 08:12:05;;;;;;;17.97;10.90;;;-1.80;99.90;;;;;;5072374;28;20166;-73
2023/01/21 08:14:32;;;;;;;20.10;9.27;;;-1.60;99.90;;;;;;5072050;28;20170;-73
2023/01/21 08:16:57;;;;;;;18.50;9.77;;;-1.50;99.90;;;;;;5058735;28;20509;-73
2023/01/21 08:19:23;;;;;;;23.63;10.87;;;-1.20;99.90;;;;;;5051052;28;20448;-73
2023/01/21 08:21:49;;;;;;;21.60;13.13;;;-0.50;99.90;;;;;;5052171;28;20467;-73
2023/01/21 08:24:14;;;;;;;23.40;14.03;;;0.90;99.90;;;;;;5051977;28;20194;-73
2023/01/21 08:26:40;;;;;;;34.23;17.10;;;2.60;99.90;;;;;;5051948;28;20478;-73
2023/01/21 08:29:06;;;;;;;33.10;20.70;;;4.30;99.90;;;;;;5083457;28;20796;-73
2023/01/21 08:31:31;;;;;;;31.53;19.13;;;5.60;99.90;;;;;;5072027;28;20511;-73
2023/01/21 08:33:57;;;;;;;29.10;18.57;;;6.90;99.90;;;;;;5087236;28;20170;-73
2023/01/21 08:36:23;;;;;;;29.47;17.60;;;8.10;99.90;;;;;;5071622;28;20170;-73
2023/01/21 08:38:53;;;;;;;25.13;15.70;;;9.10;99.90;;;;;;5071693;28;20456;-73
2023/01/21 08:41:18;;;;;;;26.60;16.07;;;10.10;99.90;;;;;;5057254;28;20212;-73
2023/01/21 08:43:44;;;;;;;27.37;16.20;;;10.90;99.90;;;;;;5051283;28;20421;-73
2023/01/21 08:46:09;;;;;;;26.50;15.17;;;11.90;99.90;;;;;;5066739;28;20203;-73
2023/01/21 08:48:37;;;;;;;23.10;16.67;;;12.80;99.90;;;;;;5068458;28;20714;-73
2023/01/21 08:51:03;;;;;;;20.47;14.43;;;13.40;99.90;;;;;;5071487;28;20194;-73
2023/01/21 08:53:28;;;;;;;17.27;14.00;;;13.90;99.90;;;;;;5051647;28;20405;-73
2023/01/21 08:56:01;;;;;;;20.20;14.57;;;14.50;99.90;;;;;;5051541;28;20405;-72
2023/01/21 08:58:28;;;;;;;17.97;14.20;;;15.30;99.90;;;;;;5051537;28;20202;-73
2023/01/21 09:00:54;;;;;;;23.87;13.73;;;16.10;99.90;;;;;;5052755;28;20449;-73
2023/01/21 09:03:19;;;;;;;18.23;13.87;;;16.70;99.90;;;;;;5051609;28;20448;-73
2023/01/21 09:05:45;;;;;;;20.00;13.83;;;17.20;99.90;;;;;;5051373;28;20173;-72
2023/01/21 09:08:11;;;;;;;15.20;13.23;;;17.40;99.90;;;;;;5051601;28;20205;-72
2023/01/21 09:13:21;;;;;;;17.37;13.80;;;17.50;99.90;;;;;;5071767;28;20287;-73
2023/01/21 09:15:46;;;;;;;20.70;12.33;;;17.10;99.90;;;;;;5071248;28;20412;-72
2023/01/21 09:18:12;;;;;;;19.13;11.63;;;15.50;91.40;;;;;;5071637;28;20205;-73
2023/01/21 09:20:38;;;;;;;14.07;10.00;;;13.70;90.00;;;;;;5086990;28;20551;-72
2023/01/21 09:25:52;;;;;;;17.63;10.87;;;10.00;99.90;;;;;;5071573;28;20416;-73
2023/01/21 09:28:18;;;;;;;17.60;10.93;;;8.60;99.90;;;;;;5071441;28;20456;-72
2023/01/21 09:30:44;;;;;;;21.50;13.47;;;7.50;99.90;;;;;;5069120;28;20960;-72
2023/01/21 09:33:11;;;;;;;23.87;12.50;;;6.90;99.90;;;;;;5069112;28;20424;-73
2023/01/21 09:35:37;;;;;;;22.53;12.90;;;6.40;99.90;;;;;;5071279;28;20764;-72
2023/01/21 09:38:02;;;;;;;17.70;10.97;;;5.90;99.90;;;;;;5071217;28;20451;-73
2023/01/21 09:40:28;;;;;;;21.83;11.73;;;5.60;99.90;;;;;;5057627;28;20173;-71
2023/01/21 09:42:53;;;;;;;15.83;11.77;;;5.20;99.90;;;;;;5051217;28;20174;-72
2023/01/21 09:45:20;;;;;;;18.10;12.60;;;4.90;99.90;;;;;;5049852;28;20171;-72
2023/01/21 09:47:48;;;;;;;23.80;12.60;;;4.40;99.90;;;;;;5050984;28;20196;-72
2023/01/21 09:50:18;;;;;;;20.87;12.20;;;4.30;99.90;;;;;;5063019;28;20427;-71
2023/01/21 09:52:45;;;;;;;26.23;13.23;;;4.00;99.90;;;;;;5071262;28;20413;-71
2023/01/21 09:55:21;;;;;;;21.73;11.50;;;4.00;99.90;;;;;;5074486;28;20401;-72
2023/01/21 09:58:08;;;;;;;24.80;13.23;;;3.80;99.90;;;;;;5068266;28;20432;-72
2023/01/21 10:01:01;;;;;;;18.00;11.57;;;3.70;99.90;;;;;;5054697;28;20756;-72
2023/01/21 10:03:42;;;;;;;28.53;15.30;;;3.70;99.90;;;;;;5054862;28;20406;-71
2023/01/21 10:06:34;;;;;;;22.70;12.27;;;3.60;99.90;;;;;;5053182;28;20480;-72
2023/01/21 10:09:10;;;;;;;22.83;12.00;;;3.70;99.90;;;;;;5054960;28;21035;-72
2023/01/21 10:12:00;;;;;;;18.10;13.20;;;3.70;99.90;;;;;;5054621;28;20933;-72
2023/01/21 10:15:05;;;;;;;24.10;12.67;;;3.80;99.90;;;;;;5054316;28;20765;-71
2023/01/21 10:17:58;;;;;;;18.10;11.00;;;4.00;99.90;;;;;;5044974;28;20440;-71
2023/01/21 10:20:38;;;;;;;22.53;12.90;;;4.10;99.90;;;;;;5074492;28;20393;-73
2023/01/21 10:23:11;;;;;;;21.47;11.90;;;4.20;99.90;;;;;;5073382;28;20409;-71
2023/01/21 10:25:38;;;;;;;18.93;11.93;;;4.30;99.90;;;;;;5074159;28;20946;-71
2023/01/21 10:28:18;;;;;;;18.73;11.37;;;4.40;99.90;;;;;;5064354;28;20448;-71
2023/01/21 10:30:47;;;;;;;23.10;13.93;;;4.40;99.90;;;;;;5054287;28;21068;-72
2023/01/21 10:33:23;;;;;;;18.33;12.27;;;4.40;99.90;;;;;;5054102;28;20406;-72
2023/01/21 10:36:12;;;;;;;26.07;14.70;;;4.40;99.90;;;;;;5052688;28;20412;-72
2023/01/21 10:38:50;;;;;;;20.30;10.53;;;4.40;99.90;;;;;;5054118;28;20464;-72
2023/01/21 10:41:51;;;;;;;31.77;15.00;;;4.40;99.90;;;;;;5052829;28;20405;-71
2023/01/21 10:44:26;;;;;;;20.73;12.30;;;4.50;99.90;;;;;;5069138;28;20416;-71
2023/01/21 10:47:12;;;;;;;15.20;11.10;;;4.50;99.90;;;;;;5054003;28;20847;-71
2023/01/21 10:50:03;;;;;;;20.07;12.00;;;4.50;99.90;;;;;;5054022;28;20525;-71
2023/01/21 10:52:49;;;;;;;16.40;11.13;;;4.40;99.90;;;;;;5053873;28;20412;-73
2023/01/21 10:55:38;;;;;;;19.07;11.67;;;4.30;99.90;;;;;;5053408;28;20414;-73
2023/01/21 10:58:17;;;;;;;18.80;12.90;;;4.10;99.90;;;;;;5053938;28;20459;-70
2023/01/21 11:00:46;;;;;;;19.03;11.47;;;3.80;99.90;;;;;;5086097;28;20809;-71
2023/01/21 11:03:48;;;;;;;14.67;9.27;;;3.80;99.90;;;;;;5066649;28;20434;-71
2023/01/21 11:06:16;;;;;;;18.30;9.90;;;3.80;99.90;;;;;;5072247;28;20408;-71
2023/01/21 11:08:45;;;;;;;13.50;9.50;;;3.70;99.90;;;;;;5072336;28;20991;-72
2023/01/21 11:11:11;;;;;;;17.17;9.93;;;3.60;99.90;;;;;;5073337;28;20447;-72
2023/01/21 11:13:40;;;;;;;16.37;11.60;;;3.60;99.90;;;;;;5072987;28;20428;-74
2023/01/21 11:16:06;;;;;;;17.27;10.13;;;3.60;99.90;;;;;;5068521;28;20423;-72
2023/01/21 11:18:36;;;;;;;17.57;10.50;;;3.70;99.90;;;;;;5053500;28;20520;-72
2023/01/21 11:21:23;;;;;;;13.70;9.60;;;3.70;99.90;;;;;;5051937;28;20421;-72
2023/01/21 11:23:53;;;;;;;18.43;9.80;;;3.70;99.90;;;;;;5053357;28;20413;-71
2023/01/21 11:26:30;;;;;;;17.40;10.77;;;3.70;99.90;;;;;;5053078;28;20417;-72
2023/01/21 11:29:12;;;;;;;17.77;11.10;;;3.60;99.90;;;;;;5067168;28;20487;-72
2023/01/21 11:31:40;;;;;;;13.37;9.37;;;3.60;99.90;;;;;;5073083;28;20404;-72
2023/01/21 11:34:22;;;;;;;14.00;9.33;;;3.50;99.90;;;;;;5072473;28;20924;-72
2023/01/21 11:37:01;;;;;;;15.87;10.47;;;3.50;99.90;;;;;;5088597;28;20408;-73
2023/01/21 11:39:30;;;;;;;19.57;12.97;;;3.40;99.90;;;;;;5071997;28;20448;-71
2023/01/21 11:42:01;;;;;;;16.37;11.43;;;3.50;99.90;;;;;;5070171;28;20818;-71
2023/01/21 11:44:26;;;;;;;14.30;9.10;;;3.40;99.90;;;;;;5068692;28;20424;-71
2023/01/21 11:46:52;;;;;;;14.67;9.23;;;3.50;99.90;;;;;;5070583;28;20434;-73
2023/01/21 11:49:21;;;;;;;12.37;7.90;;;3.40;99.90;;;;;;5070762;28;20354;-71
2023/01/21 11:51:47;;;;;;;17.90;9.23;;;3.40;99.90;;;;;;5072624;28;20181;-71
2023/01/21 11:54:19;;;;;;;11.17;8.07;;;3.30;99.90;;;;;;5072614;28;20412;-72
2023/01/21 11:56:57;;;;;;;13.40;7.90;;;3.20;99.90;;;;;;5072526;28;20180;-70
2023/01/21 11:59:28;;;;;;;12.50;9.57;;;3.30;99.90;;;;;;5071438;28;20522;-71
2023/01/21 12:02:02;;;;;;;15.57;8.83;;;3.40;99.90;;;;;;5072466;28;20403;-71
2023/01/21 12:04:29;;;;;;;17.87;8.57;;;3.30;99.90;;;;;;5071005;28;20934;-71
2023/01/21 12:06:59;;;;;;;12.07;7.57;;;3.30;99.90;;;;;;5071068;28;20434;-72
2023/01/21 12:09:26;;;;;;;14.20;8.10;;;3.20;99.90;;;;;;5071297;28;20551;-71
2023/01/21 12:12:09;;;;;;;14.30;9.03;;;3.30;99.90;;;;;;5072301;28;20411;-71
2023/01/21 12:14:49;;;;;;;10.40;7.47;;;3.40;99.90;;;;;;5072266;28;20405;-72
2023/01/21 12:17:23;;;;;;;17.60;9.63;;;3.60;99.90;;;;;;5072232;28;20424;-71
2023/01/21 12:19:59;;;;;;;13.77;9.00;;;3.80;99.90;;;;;;5068673;28;20436;-72
2023/01/21 12:23:05;;;;;;;23.10;15.17;;;3.90;99.90;;;;;;5070272;28;20407;-71
2023/01/21 12:25:43;;;;;;;19.93;10.67;;;4.20;99.90;;;;;;5031791;28;20440;-71
2023/01/21 12:28:26;;;;;;;14.90;10.90;;;4.30;99.90;;;;;;5072011;28;20439;-73
2023/01/21 12:31:23;;;;;;;14.80;8.43;;;4.50;99.90;;;;;;5069762;28;20757;-72
2023/01/21 12:33:54;;;;;;;13.10;8.00;;;4.50;99.90;;;;;;5065339;28;20462;-71
2023/01/21 12:36:28;;;;;;;18.33;9.90;;;4.60;99.90;;;;;;5070559;28;20431;-72
2023/01/21 12:39:20;;;;;;;14.10;9.90;;;4.70;99.90;;;;;;5063784;28;20467;-72
2023/01/21 12:41:53;;;;;;;13.33;7.83;;;4.70;99.90;;;;;;5059587;28;20768;-72
2023/01/21 12:44:40;;;;;;;14.83;9.20;;;4.80;99.90;;;;;;5066528;28;20463;-74
2023/01/21 12:47:24;;;;;;;12.27;8.60;;;4.60;99.90;;;;;;5076302;28;20420;-74
2023/01/21 12:49:49;;;;;;;10.83;7.20;;;4.60;99.90;;;;;;5066854;28;20460;-74
2023/01/21 12:52:24;;;;;;;10.70;7.10;;;4.70;99.90;;;;;;5071676;28;20924;-73
2023/01/21 12:54:57;;;;;;;12.80;7.80;;;4.80;99.90;;;;;;5071611;28;20239;-73
2023/01/21 12:57:40;;;;;;;13.63;7.27;;;4.70;99.90;;;;;;5070074;28;20443;-73
2023/01/21 13:00:19;;;;;;;10.57;6.70;;;4.70;99.90;;;;;;5078000;28;20437;-73
2023/01/21 13:02:56;;;;;;;13.83;8.60;;;4.70;99.90;;;;;;5071821;28;20546;-74